sensor_id;sensor_type;location;lat;lon;timestamp;temperature;humidity
36372;DHT22;22398;51.346;12.372;2023-11-21T00:00:55;7.30;99.90
36372;DHT22;22398;51.346;12.372;2023-11-21T00:05:58;7.20;99.90
36372;DHT22;22398;51.346;12.372;2023-11-21T00:11:04;7.10;99.90
36372;DHT22;22398;51.346;12.372;2023-11-21T00:16:08;7.10;99.90
36372;DHT22;22398;51.346;12.372;2023-11-21T00:21:12;7.00;99.90
36372;DHT22;22398;51.346;12.372;2023-11-21T00:26:16;6.90;99.90
36372;DHT22;22398;51.346;12.372;2023-11-21T00:31:28;6.80;99.90
36372;DHT22;22398;51.346;12.372;2023-11-21T00:36:32;6.80;99.90
36372;DHT22;22398;51.346;12.372;2023-11-21T00:41:37;6.80;99.90
36372;DHT22;22398;51.346;12.372;2023-11-21T00:46:41;6.70;99.90
36372;DHT22;22398;51.346;12.372;2023-11-21T00:51:44;6.60;99.90
36372;DHT22;22398;51.346;12.372;2023-11-21T00:56:49;6.60;99.90
36372;DHT22;22398;51.346;12.372;2023-11-21T01:01:53;6.60;99.90
36372;DHT22;22398;51.346;12.372;2023-11-21T01:06:56;6.60;99.90
36372;DHT22;22398;51.346;12.372;2023-11-21T01:12:02;6.60;99.90
36372;DHT22;22398;51.346;12.372;2023-11-21T01:17:05;6.60;99.90
36372;DHT22;22398;51.346;12.372;2023-11-21T01:22:09;6.60;99.90
36372;DHT22;22398;51.346;12.372;2023-11-21T01:27:15;6.80;99.90
36372;DHT22;22398;51.346;12.372;2023-11-21T01:32:19;7.10;99.90
36372;DHT22;22398;51.346;12.372;2023-11-21T01:37:23;7.30;99.90
36372;DHT22;22398;51.346;12.372;2023-11-21T01:42:31;7.50;99.90
36372;DHT22;22398;51.346;12.372;2023-11-21T01:47:36;7.70;99.90
36372;DHT22;22398;51.346;12.372;2023-11-21T01:52:44;7.80;99.90
36372;DHT22;22398;51.346;12.372;2023-11-21T01:57:49;7.90;99.90
36372;DHT22;22398;51.346;12.372;2023-11-21T02:02:53;8.10;99.90
36372;DHT22;22398;51.346;12.372;2023-11-21T02:07:57;8.40;99.90
36372;DHT22;22398;51.346;12.372;2023-11-21T02:13:02;8.30;99.90
36372;DHT22;22398;51.346;12.372;2023-11-21T02:18:05;8.30;99.90
36372;DHT22;22398;51.346;12.372;2023-11-21T02:23:10;8.40;99.90
36372;DHT22;22398;51.346;12.372;2023-11-21T02:28:15;8.30;99.90
36372;DHT22;22398;51.346;12.372;2023-11-21T02:33:27;8.40;99.90
36372;DHT22;22398;51.346;12.372;2023-11-21T02:38:32;8.40;99.90
36372;DHT22;22398;51.346;12.372;2023-11-21T02:43:35;8.30;99.90
36372;DHT22;22398;51.346;12.372;2023-11-21T02:48:41;8.20;99.90
36372;DHT22;22398;51.346;12.372;2023-11-21T02:53:45;8.10;99.90
36372;DHT22;22398;51.346;12.372;2023-11-21T02:58:49;7.90;99.90
36372;DHT22;22398;51.346;12.372;2023-11-21T03:03:53;7.60;99.90
36372;DHT22;22398;51.346;12.372;2023-11-21T03:08:59;7.40;99.90
36372;DHT22;22398;51.346;12.372;2023-11-21T03:14:02;7.30;99.90
36372;DHT22;22398;51.346;12.372;2023-11-21T03:19:08;7.30;99.90
36372;DHT22;22398;51.346;12.372;2023-11-21T03:24:12;7.40;99.90
36372;DHT22;22398;51.346;12.372;2023-11-21T03:29:19;7.50;99.90
36372;DHT22;22398;51.346;12.372;2023-11-21T03:34:25;7.60;99.90
36372;DHT22;22398;51.346;12.372;2023-11-21T03:39:31;7.70;99.90
36372;DHT22;22398;51.346;12.372;2023-11-21T03:44:34;7.80;99.90
36372;DHT22;22398;51.346;12.372;2023-11-21T03:49:38;7.90;99.90
36372;DHT22;22398;51.346;12.372;2023-11-21T03:54:42;7.90;99.90
36372;DHT22;22398;51.346;12.372;2023-11-21T03:59:46;8.00;99.90
36372;DHT22;22398;51.346;12.372;2023-11-21T04:04:49;8.00;99.90
36372;DHT22;22398;51.346;12.372;2023-11-21T04:09:55;8.00;99.90
36372;DHT22;22398;51.346;12.372;2023-11-21T04:14:58;8.00;99.90
36372;DHT22;22398;51.346;12.372;2023-11-21T04:20:02;8.30;99.90
36372;DHT22;22398;51.346;12.372;2023-11-21T04:25:13;8.10;99.90
36372;DHT22;22398;51.346;12.372;2023-11-21T04:30:16;8.10;99.90
36372;DHT22;22398;51.346;12.372;2023-11-21T04:35:20;8.20;99.90
36372;DHT22;22398;51.346;12.372;2023-11-21T04:40:25;8.20;99.90
36372;DHT22;22398;51.346;12.372;2023-11-21T04:45:29;8.20;99.90
36372;DHT22;22398;51.346;12.372;2023-11-21T04:50:32;8.20;99.90
36372;DHT22;22398;51.346;12.372;2023-11-21T04:55:38;8.30;99.90
36372;DHT22;22398;51.346;12.372;2023-11-21T05:00:41;8.30;99.90
36372;DHT22;22398;51.346;12.372;2023-11-21T05:05:45;8.40;99.90
36372;DHT22;22398;51.346;12.372;2023-11-21T05:10:50;8.40;99.90
36372;DHT22;22398;51.346;12.372;2023-11-21T05:15:56;8.40;99.90
36372;DHT22;22398;51.346;12.372;2023-11-21T05:21:00;8.40;99.90
36372;DHT22;22398;51.346;12.372;2023-11-21T05:26:05;8.30;99.90
36372;DHT22;22398;51.346;12.372;2023-11-21T05:31:09;8.30;99.90
36372;DHT22;22398;51.346;12.372;2023-11-21T05:36:18;8.30;99.90
36372;DHT22;22398;51.346;12.372;2023-11-21T05:41:23;8.30;99.90
36372;DHT22;22398;51.346;12.372;2023-11-21T05:46:27;8.30;99.90
36372;DHT22;22398;51.346;12.372;2023-11-21T05:51:31;8.30;99.90
36372;DHT22;22398;51.346;12.372;2023-11-21T05:56:35;8.20;99.90
36372;DHT22;22398;51.346;12.372;2023-11-21T06:01:40;8.20;99.90
36372;DHT22;22398;51.346;12.372;2023-11-21T06:06:45;8.20;99.90
36372;DHT22;22398;51.346;12.372;2023-11-21T06:11:50;8.10;99.90
36372;DHT22;22398;51.346;12.372;2023-11-21T06:16:54;8.00;99.90
36372;DHT22;22398;51.346;12.372;2023-11-21T06:21:58;7.90;99.90
36372;DHT22;22398;51.346;12.372;2023-11-21T06:27:05;7.90;99.90
36372;DHT22;22398;51.346;12.372;2023-11-21T06:32:09;7.90;99.90
36372;DHT22;22398;51.346;12.372;2023-11-21T06:37:13;7.90;99.90
36372;DHT22;22398;51.346;12.372;2023-11-21T06:42:18;7.90;99.90
36372;DHT22;22398;51.346;12.372;2023-11-21T06:47:21;7.90;99.90
36372;DHT22;22398;51.346;12.372;2023-11-21T06:52:27;7.80;99.90
36372;DHT22;22398;51.346;12.372;2023-11-21T06:57:32;7.90;99.90
36372;DHT22;22398;51.346;12.372;2023-11-21T07:02:36;7.80;99.90
36372;DHT22;22398;51.346;12.372;2023-11-21T07:07:39;7.80;99.90
36372;DHT22;22398;51.346;12.372;2023-11-21T07:12:44;7.60;99.90
36372;DHT22;22398;51.346;12.372;2023-11-21T07:17:47;7.60;99.90
36372;DHT22;22398;51.346;12.372;2023-11-21T07:22:51;7.60;99.90
36372;DHT22;22398;51.346;12.372;2023-11-21T07:27:56;7.60;99.90
36372;DHT22;22398;51.346;12.372;2023-11-21T07:33:00;7.50;99.90
36372;DHT22;22398;51.346;12.372;2023-11-21T07:38:04;7.60;99.90
36372;DHT22;22398;51.346;12.372;2023-11-21T07:43:09;7.60;99.90
36372;DHT22;22398;51.346;12.372;2023-11-21T07:48:12;7.60;99.90
36372;DHT22;22398;51.346;12.372;2023-11-21T07:53:16;7.70;99.90
36372;DHT22;22398;51.346;12.372;2023-11-21T07:58:20;7.80;99.90
36372;DHT22;22398;51.346;12.372;2023-11-21T08:03:24;7.80;99.90
36372;DHT22;22398;51.346;12.372;2023-11-21T08:08:29;7.80;99.90
36372;DHT22;22398;51.346;12.372;2023-11-21T08:13:34;7.80;99.90
36372;DHT22;22398;51.346;12.372;2023-11-21T08:18:37;7.70;99.90
36372;DHT22;22398;51.346;12.372;2023-11-21T08:23:42;7.60;99.90
36372;DHT22;22398;51.346;12.372;2023-11-21T08:28:47;7.60;99.90
36372;DHT22;22398;51.346;12.372;2023-11-21T08:33:51;7.60;99.90
36372;DHT22;22398;51.346;12.372;2023-11-21T08:38:55;7.70;99.90
36372;DHT22;22398;51.346;12.372;2023-11-21T08:44:00;7.70;99.90
36372;DHT22;22398;51.346;12.372;2023-11-21T08:49:04;7.70;99.90
36372;DHT22;22398;51.346;12.372;2023-11-21T08:54:08;7.70;99.90
36372;DHT22;22398;51.346;12.372;2023-11-21T08:59:13;7.60;99.90
36372;DHT22;22398;51.346;12.372;2023-11-21T09:04:17;7.60;99.90
36372;DHT22;22398;51.346;12.372;2023-11-21T09:09:21;7.60;99.90
36372;DHT22;22398;51.346;12.372;2023-11-21T09:14:28;7.60;99.90
36372;DHT22;22398;51.346;12.372;2023-11-21T09:19:31;7.50;99.90
36372;DHT22;22398;51.346;12.372;2023-11-21T09:24:35;7.50;99.90
36372;DHT22;22398;51.346;12.372;2023-11-21T09:29:42;7.50;99.90
36372;DHT22;22398;51.346;12.372;2023-11-21T09:34:46;7.50;99.90
36372;DHT22;22398;51.346;12.372;2023-11-21T09:39:49;7.60;99.90
36372;DHT22;22398;51.346;12.372;2023-11-21T09:45:01;7.60;99.90
36372;DHT22;22398;51.346;12.372;2023-11-21T09:50:07;7.60;99.90
36372;DHT22;22398;51.346;12.372;2023-11-21T09:55:12;7.50;99.90
36372;DHT22;22398;51.346;12.372;2023-11-21T10:00:19;7.50;99.90
36372;DHT22;22398;51.346;12.372;2023-11-21T10:05:25;7.50;99.90
36372;DHT22;22398;51.346;12.372;2023-11-21T10:10:32;7.40;99.90
36372;DHT22;22398;51.346;12.372;2023-11-21T10:15:38;7.40;99.90
36372;DHT22;22398;51.346;12.372;2023-11-21T10:20:42;7.40;99.90
36372;DHT22;22398;51.346;12.372;2023-11-21T10:25:48;7.30;99.90
36372;DHT22;22398;51.346;12.372;2023-11-21T10:30:56;7.20;99.90
36372;DHT22;22398;51.346;12.372;2023-11-21T10:35:59;7.20;99.90
36372;DHT22;22398;51.346;12.372;2023-11-21T10:41:05;7.20;99.90
36372;DHT22;22398;51.346;12.372;2023-11-21T10:46:14;7.20;99.90
36372;DHT22;22398;51.346;12.372;2023-11-21T10:51:19;7.50;99.90
36372;DHT22;22398;51.346;12.372;2023-11-21T10:56:24;7.50;99.90
36372;DHT22;22398;51.346;12.372;2023-11-21T11:01:30;7.50;99.90
36372;DHT22;22398;51.346;12.372;2023-11-21T11:06:34;7.40;99.90
36372;DHT22;22398;51.346;12.372;2023-11-21T11:11:38;7.30;99.90
36372;DHT22;22398;51.346;12.372;2023-11-21T11:16:45;7.30;99.90
36372;DHT22;22398;51.346;12.372;2023-11-21T11:21:57;7.40;99.90
36372;DHT22;22398;51.346;12.372;2023-11-21T11:27:11;7.50;99.90
36372;DHT22;22398;51.346;12.372;2023-11-21T11:32:24;7.30;99.90
36372;DHT22;22398;51.346;12.372;2023-11-21T11:37:35;7.30;99.90
36372;DHT22;22398;51.346;12.372;2023-11-21T11:42:39;7.20;99.90
36372;DHT22;22398;51.346;12.372;2023-11-21T11:47:44;7.20;99.90
36372;DHT22;22398;51.346;12.372;2023-11-21T11:52:52;7.20;99.90
36372;DHT22;22398;51.346;12.372;2023-11-21T11:57:57;7.10;99.90
36372;DHT22;22398;51.346;12.372;2023-11-21T12:03:05;7.00;99.90
36372;DHT22;22398;51.346;12.372;2023-11-21T12:08:11;6.90;99.90
36372;DHT22;22398;51.346;12.372;2023-11-21T12:13:15;6.70;99.90
36372;DHT22;22398;51.346;12.372;2023-11-21T12:18:20;6.60;99.90
36372;DHT22;22398;51.346;12.372;2023-11-21T12:23:24;6.50;99.90
36372;DHT22;22398;51.346;12.372;2023-11-21T12:28:27;6.40;99.90
36372;DHT22;22398;51.346;12.372;2023-11-21T12:33:32;6.40;99.90
36372;DHT22;22398;51.346;12.372;2023-11-21T12:38:37;6.30;99.90
36372;DHT22;22398;51.346;12.372;2023-11-21T12:43:40;6.10;99.90
36372;DHT22;22398;51.346;12.372;2023-11-21T12:48:47;6.00;99.90
36372;DHT22;22398;51.346;12.372;2023-11-21T12:53:51;5.80;99.90
36372;DHT22;22398;51.346;12.372;2023-11-21T12:58:55;5.50;99.90
36372;DHT22;22398;51.346;12.372;2023-11-21T13:04:00;5.30;99.90
36372;DHT22;22398;51.346;12.372;2023-11-21T13:09:04;5.20;99.90
36372;DHT22;22398;51.346;12.372;2023-11-21T13:14:08;5.20;99.90
36372;DHT22;22398;51.346;12.372;2023-11-21T13:19:14;5.20;99.90
36372;DHT22;22398;51.346;12.372;2023-11-21T13:24:18;5.30;99.90
36372;DHT22;22398;51.346;12.372;2023-11-21T13:29:21;5.30;99.90
36372;DHT22;22398;51.346;12.372;2023-11-21T13:34:26;5.40;99.90
36372;DHT22;22398;51.346;12.372;2023-11-21T13:39:35;5.40;99.90
36372;DHT22;22398;51.346;12.372;2023-11-21T13:44:40;5.50;99.90
36372;DHT22;22398;51.346;12.372;2023-11-21T13:49:48;5.50;99.90
36372;DHT22;22398;51.346;12.372;2023-11-21T13:54:51;5.60;99.90
36372;DHT22;22398;51.346;12.372;2023-11-21T13:59:55;5.60;99.90
36372;DHT22;22398;51.346;12.372;2023-11-21T14:05:02;5.60;99.90
36372;DHT22;22398;51.346;12.372;2023-11-21T14:10:11;5.70;99.90
36372;DHT22;22398;51.346;12.372;2023-11-21T14:15:16;5.70;99.90
36372;DHT22;22398;51.346;12.372;2023-11-21T14:20:22;5.80;99.90
36372;DHT22;22398;51.346;12.372;2023-11-21T14:25:26;5.90;99.90
36372;DHT22;22398;51.346;12.372;2023-11-21T14:30:30;5.80;99.90
36372;DHT22;22398;51.346;12.372;2023-11-21T14:35:39;5.70;99.90
36372;DHT22;22398;51.346;12.372;2023-11-21T14:40:42;5.70;99.90
36372;DHT22;22398;51.346;12.372;2023-11-21T14:45:46;5.60;99.90
36372;DHT22;22398;51.346;12.372;2023-11-21T14:50:52;5.50;99.90
36372;DHT22;22398;51.346;12.372;2023-11-21T14:56:10;5.40;99.90
36372;DHT22;22398;51.346;12.372;2023-11-21T15:01:24;5.40;99.90
36372;DHT22;22398;51.346;12.372;2023-11-21T15:06:46;5.40;99.90
36372;DHT22;22398;51.346;12.372;2023-11-21T15:11:50;5.40;99.90
36372;DHT22;22398;51.346;12.372;2023-11-21T15:16:58;5.40;99.90
36372;DHT22;22398;51.346;12.372;2023-11-21T15:22:05;5.30;99.90
36372;DHT22;22398;51.346;12.372;2023-11-21T15:27:09;5.30;99.90
36372;DHT22;22398;51.346;12.372;2023-11-21T15:32:13;5.30;99.90
36372;DHT22;22398;51.346;12.372;2023-11-21T15:37:18;5.30;99.90
36372;DHT22;22398;51.346;12.372;2023-11-21T15:42:22;5.40;99.90
36372;DHT22;22398;51.346;12.372;2023-11-21T15:47:26;5.40;99.90
36372;DHT22;22398;51.346;12.372;2023-11-21T15:52:31;5.40;99.90
36372;DHT22;22398;51.346;12.372;2023-11-21T15:57:35;5.30;99.90
36372;DHT22;22398;51.346;12.372;2023-11-21T16:02:38;5.30;99.90
36372;DHT22;22398;51.346;12.372;2023-11-21T16:07:43;5.10;99.90
36372;DHT22;22398;51.346;12.372;2023-11-21T16:12:47;5.00;99.90
36372;DHT22;22398;51.346;12.372;2023-11-21T16:17:51;4.90;99.90
36372;DHT22;22398;51.346;12.372;2023-11-21T16:22:55;4.90;99.90
36372;DHT22;22398;51.346;12.372;2023-11-21T16:27:59;5.20;99.90
36372;DHT22;22398;51.346;12.372;2023-11-21T16:33:06;5.10;99.90
36372;DHT22;22398;51.346;12.372;2023-11-21T16:38:11;4.80;99.90
36372;DHT22;22398;51.346;12.372;2023-11-21T16:43:14;4.80;99.90
36372;DHT22;22398;51.346;12.372;2023-11-21T16:48:18;4.80;99.90
36372;DHT22;22398;51.346;12.372;2023-11-21T16:53:24;4.80;99.90
36372;DHT22;22398;51.346;12.372;2023-11-21T16:58:28;4.80;99.90
36372;DHT22;22398;51.346;12.372;2023-11-21T17:03:35;4.80;99.90
36372;DHT22;22398;51.346;12.372;2023-11-21T17:08:40;4.80;99.90
36372;DHT22;22398;51.346;12.372;2023-11-21T17:13:46;4.80;99.90
36372;DHT22;22398;51.346;12.372;2023-11-21T17:18:49;4.80;99.90
36372;DHT22;22398;51.346;12.372;2023-11-21T17:23:55;4.80;99.90
36372;DHT22;22398;51.346;12.372;2023-11-21T17:28:59;4.80;99.90
36372;DHT22;22398;51.346;12.372;2023-11-21T17:34:03;4.80;99.90
36372;DHT22;22398;51.346;12.372;2023-11-21T17:39:08;4.70;99.90
36372;DHT22;22398;51.346;12.372;2023-11-21T17:44:12;4.70;99.90
36372;DHT22;22398;51.346;12.372;2023-11-21T17:49:16;4.70;99.90
36372;DHT22;22398;51.346;12.372;2023-11-21T17:54:21;4.70;99.90
36372;DHT22;22398;51.346;12.372;2023-11-21T17:59:25;4.80;99.90
36372;DHT22;22398;51.346;12.372;2023-11-21T18:04:29;4.70;99.90
36372;DHT22;22398;51.346;12.372;2023-11-21T18:09:34;4.60;99.90
36372;DHT22;22398;51.346;12.372;2023-11-21T18:14:37;4.50;99.90
36372;DHT22;22398;51.346;12.372;2023-11-21T18:19:41;4.50;99.90
36372;DHT22;22398;51.346;12.372;2023-11-21T18:24:46;4.50;99.90
36372;DHT22;22398;51.346;12.372;2023-11-21T18:29:49;4.50;99.90
36372;DHT22;22398;51.346;12.372;2023-11-21T18:34:53;4.40;99.90
36372;DHT22;22398;51.346;12.372;2023-11-21T18:39:59;4.30;99.90
36372;DHT22;22398;51.346;12.372;2023-11-21T18:45:03;4.20;99.90
36372;DHT22;22398;51.346;12.372;2023-11-21T18:50:08;4.20;99.90
36372;DHT22;22398;51.346;12.372;2023-11-21T18:55:14;4.20;99.90
36372;DHT22;22398;51.346;12.372;2023-11-21T19:00:18;4.10;99.90
36372;DHT22;22398;51.346;12.372;2023-11-21T19:05:22;4.00;99.90
36372;DHT22;22398;51.346;12.372;2023-11-21T19:10:27;4.00;99.90
36372;DHT22;22398;51.346;12.372;2023-11-21T19:15:31;3.90;99.90
36372;DHT22;22398;51.346;12.372;2023-11-21T19:20:35;3.90;99.90
36372;DHT22;22398;51.346;12.372;2023-11-21T19:25:40;3.80;99.90
36372;DHT22;22398;51.346;12.372;2023-11-21T19:30:44;3.80;99.90
36372;DHT22;22398;51.346;12.372;2023-11-21T19:35:48;3.90;99.90
36372;DHT22;22398;51.346;12.372;2023-11-21T19:40:53;3.80;99.90
36372;DHT22;22398;51.346;12.372;2023-11-21T19:45:56;3.70;99.90
36372;DHT22;22398;51.346;12.372;2023-11-21T19:51:01;3.70;99.90
36372;DHT22;22398;51.346;12.372;2023-11-21T19:56:08;3.60;99.90
36372;DHT22;22398;51.346;12.372;2023-11-21T20:01:14;3.40;99.90
36372;DHT22;22398;51.346;12.372;2023-11-21T20:06:18;3.30;99.90
36372;DHT22;22398;51.346;12.372;2023-11-21T20:11:24;3.30;99.90
36372;DHT22;22398;51.346;12.372;2023-11-21T20:16:27;3.20;99.90
36372;DHT22;22398;51.346;12.372;2023-11-21T20:21:30;3.20;99.90
36372;DHT22;22398;51.346;12.372;2023-11-21T20:26:37;3.20;99.90
36372;DHT22;22398;51.346;12.372;2023-11-21T20:31:43;3.30;99.90
36372;DHT22;22398;51.346;12.372;2023-11-21T20:36:47;3.30;99.90
36372;DHT22;22398;51.346;12.372;2023-11-21T20:41:52;3.30;99.90
36372;DHT22;22398;51.346;12.372;2023-11-21T20:46:56;3.30;99.90
36372;DHT22;22398;51.346;12.372;2023-11-21T20:52:11;3.20;99.90
36372;DHT22;22398;51.346;12.372;2023-11-21T20:57:16;3.10;99.90
36372;DHT22;22398;51.346;12.372;2023-11-21T21:02:19;3.00;99.90
36372;DHT22;22398;51.346;12.372;2023-11-21T21:07:29;3.00;99.90
36372;DHT22;22398;51.346;12.372;2023-11-21T21:12:34;2.90;99.90
36372;DHT22;22398;51.346;12.372;2023-11-21T21:17:37;2.80;99.90
36372;DHT22;22398;51.346;12.372;2023-11-21T21:22:43;2.80;99.90
36372;DHT22;22398;51.346;12.372;2023-11-21T21:27:47;2.80;99.90
36372;DHT22;22398;51.346;12.372;2023-11-21T21:32:51;2.70;99.90
36372;DHT22;22398;51.346;12.372;2023-11-21T21:37:59;2.60;99.90
36372;DHT22;22398;51.346;12.372;2023-11-21T21:43:04;2.60;99.90
36372;DHT22;22398;51.346;12.372;2023-11-21T21:48:07;2.50;99.90
36372;DHT22;22398;51.346;12.372;2023-11-21T21:53:12;2.50;99.90
36372;DHT22;22398;51.346;12.372;2023-11-21T21:58:17;2.50;99.90
36372;DHT22;22398;51.346;12.372;2023-11-21T22:03:32;2.30;99.90
36372;DHT22;22398;51.346;12.372;2023-11-21T22:08:35;2.30;99.90
36372;DHT22;22398;51.346;12.372;2023-11-21T22:13:40;2.20;99.90
36372;DHT22;22398;51.346;12.372;2023-11-21T22:18:44;2.30;99.90
36372;DHT22;22398;51.346;12.372;2023-11-21T22:23:47;2.30;99.90
36372;DHT22;22398;51.346;12.372;2023-11-21T22:28:52;2.30;99.90
36372;DHT22;22398;51.346;12.372;2023-11-21T22:33:55;2.30;99.90
36372;DHT22;22398;51.346;12.372;2023-11-21T22:38:59;2.30;99.90
36372;DHT22;22398;51.346;12.372;2023-11-21T22:44:05;2.30;99.90
36372;DHT22;22398;51.346;12.372;2023-11-21T22:49:09;2.30;99.90
36372;DHT22;22398;51.346;12.372;2023-11-21T22:54:13;2.20;99.90
36372;DHT22;22398;51.346;12.372;2023-11-21T22:59:18;2.20;99.90
36372;DHT22;22398;51.346;12.372;2023-11-21T23:04:21;2.10;99.90
36372;DHT22;22398;51.346;12.372;2023-11-21T23:09:25;2.20;99.90
36372;DHT22;22398;51.346;12.372;2023-11-21T23:14:30;2.20;99.90
36372;DHT22;22398;51.346;12.372;2023-11-21T23:19:35;2.10;99.90
36372;DHT22;22398;51.346;12.372;2023-11-21T23:24:49;2.20;99.90
36372;DHT22;22398;51.346;12.372;2023-11-21T23:29:54;2.20;99.90
36372;DHT22;22398;51.346;12.372;2023-11-21T23:34:57;2.20;99.90
36372;DHT22;22398;51.346;12.372;2023-11-21T23:40:01;2.20;99.90
36372;DHT22;22398;51.346;12.372;2023-11-21T23:45:10;2.10;99.90
36372;DHT22;22398;51.346;12.372;2023-11-21T23:50:13;2.10;99.90
36372;DHT22;22398;51.346;12.372;2023-11-21T23:55:19;2.10;99.90
